Terminal Aerodrome Forecast
Issued by NWS Rapid City, SD

Home | Current Version | Previous Version | Graphics & Text | Print | Product List | Glossary On
Versions: 1 2 3 4 5 6 7 8 9 10 11 12 13 14 15 16 17
086
FTUS43 KUNR 192320
TAFRAP
TAF
KRAP 192320Z 2000/2024 16007KT P6SM BKN250
     FM200400 30006KT P6SM SCT250
     FM201700 33020G32KT P6SM BKN120=

USA.gov is the U.S. government's official web portal to all federal, state and local government web resources and services.